createdAt,value
2022-10-12T00:01:46.680Z,12.95
2022-10-12T00:04:14.240Z,12.38
2022-10-12T00:06:44.567Z,12.35
2022-10-12T00:09:12.470Z,11.60
2022-10-12T00:11:48.577Z,12.63
2022-10-12T00:14:16.953Z,11.98
2022-10-12T00:16:45.036Z,11.75
2022-10-12T00:23:52.471Z,11.60
2022-10-12T00:26:29.090Z,12.20
2022-10-12T00:29:13.404Z,12.00
2022-10-12T00:31:41.818Z,12.00
2022-10-12T00:34:10.019Z,11.60
2022-10-12T00:36:56.900Z,12.02
2022-10-12T00:39:30.554Z,11.07
2022-10-12T00:56:06.945Z,11.73
2022-10-12T00:58:34.630Z,11.65
2022-10-12T01:01:06.547Z,11.52
2022-10-12T01:03:36.223Z,11.82
2022-10-12T01:06:05.646Z,11.73
2022-10-12T01:08:33.450Z,11.65
2022-10-12T01:21:27.997Z,10.80
2022-10-12T01:24:44.402Z,11.40
2022-10-12T01:27:37.271Z,11.98
2022-10-12T01:30:32.265Z,11.07
2022-10-12T01:33:26.689Z,10.63
2022-10-12T01:36:28.509Z,11.07
2022-10-12T01:50:38.866Z,10.45
2022-10-12T01:53:35.738Z,10.55
2022-10-12T01:56:21.475Z,10.82
2022-10-12T01:59:25.909Z,11.10
2022-10-12T02:02:13.766Z,10.32
2022-10-12T02:05:16.388Z,11.02
2022-10-12T02:07:55.911Z,10.95
2022-10-12T02:10:35.484Z,11.20
2022-10-12T02:13:08.786Z,10.10
2022-10-12T02:15:38.555Z,9.68
2022-10-12T02:18:10.338Z,10.30
2022-10-12T02:20:40.835Z,11.20
2022-10-12T02:23:10.465Z,10.75
2022-10-12T02:25:39.430Z,10.07
2022-10-12T02:28:15.266Z,9.98
2022-10-12T02:31:04.645Z,10.30
2022-10-12T02:34:39.508Z,10.07
2022-10-12T02:43:23.435Z,9.88
2022-10-12T02:45:55.688Z,9.35
2022-10-12T02:48:25.697Z,9.30
2022-10-12T03:09:27.295Z,9.32
2022-10-12T03:21:14.666Z,8.32
2022-10-12T03:23:42.613Z,8.73
2022-10-12T03:26:19.918Z,8.18
2022-10-12T03:28:47.971Z,8.65
2022-10-12T03:31:16.144Z,9.00
2022-10-12T03:33:43.714Z,8.55
2022-10-12T03:36:12.233Z,8.60
2022-10-12T03:38:39.694Z,9.27
2022-10-12T03:41:07.759Z,8.38
2022-10-12T03:54:21.763Z,8.50
2022-10-12T04:24:16.336Z,8.25
2022-10-12T04:26:53.307Z,8.90
2022-10-12T04:29:39.993Z,8.52
2022-10-12T05:52:04.916Z,8.52
2022-10-12T05:54:33.006Z,7.72
2022-10-12T05:57:00.407Z,7.53
2022-10-12T05:59:28.886Z,7.93
2022-10-12T06:14:54.069Z,8.07
2022-10-12T06:21:35.386Z,8.05
2022-10-12T06:24:06.893Z,8.25
2022-10-12T06:26:35.336Z,7.57
2022-10-12T06:29:06.249Z,7.68
2022-10-12T06:31:34.850Z,7.18
2022-10-12T06:34:05.302Z,7.22
2022-10-12T06:36:33.003Z,7.18
2022-10-12T06:39:00.269Z,7.55
2022-10-12T06:46:12.392Z,7.35
2022-10-12T06:48:40.544Z,7.60
2022-10-12T06:51:08.599Z,7.32
2022-10-12T06:53:36.589Z,7.50
2022-10-12T06:56:10.383Z,6.88
2022-10-12T07:03:40.422Z,6.80
2022-10-12T07:06:12.168Z,6.72
2022-10-12T07:08:41.350Z,6.38
2022-10-12T07:11:13.065Z,6.47
2022-10-12T07:13:40.858Z,6.40
2022-10-12T07:16:08.855Z,6.45
2022-10-12T07:38:37.803Z,6.45
2022-10-12T08:07:24.627Z,7.68
2022-10-12T08:09:52.619Z,7.97
2022-10-12T08:12:20.057Z,12.88
2022-10-12T08:20:07.329Z,12.68
2022-10-12T08:22:37.233Z,15.13
2022-10-12T08:25:07.936Z,15.00
2022-10-12T08:27:36.313Z,14.65
2022-10-12T08:30:06.650Z,13.85
2022-10-12T08:32:40.283Z,13.73
2022-10-12T08:35:11.160Z,13.18
2022-10-12T09:13:13.264Z,11.18
2022-10-12T09:25:03.827Z,12.85
2022-10-12T09:27:32.200Z,12.20
2022-10-12T09:30:04.906Z,11.93
2022-10-12T09:33:03.426Z,11.05
2022-10-12T09:35:32.432Z,10.77
2022-10-12T09:38:02.227Z,10.98
2022-10-12T09:40:32.754Z,10.77
2022-10-12T09:43:03.103Z,10.90
2022-10-12T09:45:34.094Z,9.75
2022-10-12T09:48:19.661Z,9.50
2022-10-12T09:51:00.357Z,9.85
2022-10-12T09:53:32.470Z,9.32
2022-10-12T09:56:16.059Z,9.05
2022-10-12T09:59:02.226Z,8.80
2022-10-12T10:01:35.481Z,9.07
2022-10-12T10:04:26.897Z,9.18
2022-10-12T10:06:54.603Z,9.30
2022-10-12T10:09:32.171Z,8.15
2022-10-12T10:12:27.206Z,8.20
2022-10-12T10:14:57.413Z,8.18
2022-10-12T10:17:32.523Z,7.85
2022-10-12T10:20:05.938Z,6.97
2022-10-12T10:22:33.663Z,7.47
2022-10-12T10:25:02.487Z,6.63
2022-10-12T10:27:39.676Z,7.00
2022-10-12T10:30:29.548Z,6.43
2022-10-12T10:43:27.727Z,5.82
2022-10-12T10:46:03.423Z,6.38
2022-10-12T10:48:59.178Z,6.00
2022-10-12T10:51:52.638Z,5.05
2022-10-12T10:54:23.452Z,4.25
2022-10-12T10:56:57.566Z,3.83
2022-10-12T11:00:02.240Z,4.32
2022-10-12T11:02:45.853Z,4.38
2022-10-12T11:05:33.704Z,4.10
2022-10-12T11:08:12.145Z,4.28
2022-10-12T11:11:55.472Z,3.38
2022-10-12T11:29:20.666Z,2.65
2022-10-12T12:01:17.231Z,2.20
2022-10-12T12:03:44.636Z,1.95
2022-10-12T12:06:30.291Z,1.90
2022-10-12T12:09:02.331Z,1.92
2022-10-12T12:11:34.770Z,2.90
2022-10-12T12:19:35.298Z,2.00
2022-10-12T12:22:28.857Z,2.40
2022-10-12T12:25:21.078Z,1.90
2022-10-12T12:33:19.412Z,1.85
2022-10-12T12:36:07.780Z,2.28
2022-10-12T12:51:44.118Z,2.50
2022-10-12T12:54:24.729Z,3.10
2022-10-12T13:59:30.967Z,2.08
2022-10-12T14:02:02.306Z,2.50
2022-10-12T14:04:33.636Z,2.30
2022-10-12T14:16:32.027Z,2.60
2022-10-12T14:19:32.233Z,3.67
2022-10-12T14:22:01.492Z,2.90
2022-10-12T14:24:30.055Z,2.70
2022-10-12T14:27:04.189Z,2.28
2022-10-12T14:29:36.805Z,2.53
2022-10-12T14:32:29.489Z,2.33
2022-10-12T14:35:24.219Z,3.00
2022-10-12T14:37:54.786Z,3.25
2022-10-12T17:14:41.315Z,7.05
2022-10-12T17:17:09.544Z,7.82
2022-10-12T17:19:39.866Z,7.75
2022-10-12T17:33:18.497Z,9.45
2022-10-12T17:55:24.306Z,9.15
2022-10-12T17:58:00.729Z,9.75
2022-10-12T18:00:29.176Z,9.85
2022-10-12T18:02:57.429Z,10.63
2022-10-12T18:05:25.295Z,9.95
2022-10-12T18:07:53.255Z,10.57
2022-10-12T18:10:23.462Z,10.07
2022-10-12T18:12:53.662Z,10.70
2022-10-12T18:15:23.314Z,10.73
2022-10-12T18:17:50.658Z,10.73
2022-10-12T18:20:19.750Z,10.93
2022-10-12T18:22:47.017Z,10.38
2022-10-12T18:25:15.586Z,10.70
2022-10-12T18:27:43.800Z,11.20
2022-10-12T18:30:11.891Z,11.00
2022-10-12T18:32:39.070Z,11.02
2022-10-12T18:35:07.218Z,11.57
2022-10-12T18:37:34.986Z,11.70
2022-10-12T18:40:07.458Z,11.68
2022-10-12T18:42:35.134Z,12.88
2022-10-12T18:45:02.441Z,13.63
2022-10-12T18:47:29.811Z,15.25
2022-10-12T18:49:57.475Z,14.80
2022-10-12T18:52:24.488Z,14.10
2022-10-12T18:54:51.751Z,14.27
2022-10-12T18:57:19.131Z,13.60
2022-10-12T18:59:46.540Z,13.73
2022-10-12T19:02:18.072Z,13.65
2022-10-12T19:04:46.717Z,13.00
2022-10-12T19:07:16.043Z,12.70
2022-10-12T19:09:43.151Z,11.80
2022-10-12T19:12:13.166Z,11.80
2022-10-12T19:14:41.206Z,11.10
2022-10-12T19:17:08.278Z,11.65
2022-10-12T19:19:36.667Z,11.63
2022-10-12T19:22:04.419Z,11.65
2022-10-12T19:24:32.270Z,11.68
2022-10-12T19:36:58.618Z,13.68
2022-10-12T19:39:27.288Z,12.98
2022-10-12T19:41:54.548Z,13.20
2022-10-12T19:44:22.387Z,13.13
2022-10-12T19:47:08.200Z,13.30
2022-10-12T19:49:50.442Z,13.07
2022-10-12T19:52:38.126Z,13.02
2022-10-12T19:55:08.177Z,13.52
2022-10-12T19:57:53.812Z,13.38
2022-10-12T20:00:33.750Z,14.25
2022-10-12T20:03:10.280Z,14.43
2022-10-12T20:05:48.557Z,14.50
2022-10-12T20:08:16.569Z,13.93
2022-10-12T20:10:53.706Z,12.63
2022-10-12T20:16:47.022Z,12.75
2022-10-12T20:19:17.820Z,14.02
2022-10-12T20:21:45.555Z,13.68
2022-10-12T20:24:13.230Z,13.20
2022-10-12T20:26:44.776Z,13.40
2022-10-12T20:29:15.817Z,14.05
2022-10-12T20:31:44.105Z,13.02
2022-10-12T20:35:16.835Z,14.13
2022-10-12T20:39:47.113Z,12.70
2022-10-12T20:42:22.489Z,13.25
2022-10-12T20:44:56.042Z,12.98
2022-10-12T20:47:26.473Z,13.23
2022-10-12T20:50:13.461Z,13.02
2022-10-12T20:52:44.773Z,13.00
2022-10-12T20:55:26.549Z,12.85
2022-10-12T20:58:00.377Z,11.95
2022-10-12T21:00:42.279Z,12.25
2022-10-12T21:03:22.685Z,11.98
2022-10-12T21:10:41.106Z,14.02
2022-10-12T21:17:55.584Z,14.00
2022-10-12T21:20:24.399Z,14.13
2022-10-12T21:22:52.265Z,13.90
2022-10-12T21:25:23.327Z,13.88
2022-10-12T21:33:04.747Z,13.05
2022-10-12T21:47:22.548Z,12.75
2022-10-12T21:49:50.088Z,12.40
2022-10-12T21:52:17.363Z,12.45
2022-10-12T21:54:45.801Z,12.82
2022-10-12T21:57:13.246Z,13.65
2022-10-12T21:59:40.262Z,13.88
2022-10-12T22:02:08.343Z,13.13
2022-10-12T22:04:41.652Z,14.43
2022-10-12T22:10:19.293Z,13.65
2022-10-12T22:12:46.442Z,13.27
2022-10-12T22:15:13.874Z,13.10
2022-10-12T22:17:40.945Z,12.70
2022-10-12T22:20:08.499Z,11.82
2022-10-12T22:22:56.579Z,11.57
2022-10-12T22:30:21.086Z,11.20
2022-10-12T22:37:48.833Z,11.90
2022-10-12T22:40:22.865Z,12.47
2022-10-12T22:42:50.866Z,12.27
2022-10-12T22:45:27.089Z,12.55
2022-10-12T22:48:00.631Z,12.73
2022-10-12T22:50:37.659Z,12.52
2022-10-12T22:53:07.159Z,11.80
2022-10-12T22:55:43.337Z,13.10
2022-10-12T22:58:17.174Z,13.40
2022-10-12T23:00:45.525Z,13.13
2022-10-12T23:03:16.651Z,12.85
2022-10-12T23:05:49.252Z,12.57
2022-10-12T23:08:17.475Z,12.07
2022-10-12T23:11:16.926Z,11.88
2022-10-12T23:19:04.392Z,10.63
2022-10-12T23:21:34.933Z,11.27
2022-10-12T23:24:07.502Z,11.10
2022-10-12T23:26:35.754Z,11.85
2022-10-12T23:29:05.834Z,11.57
2022-10-12T23:47:30.923Z,12.75
2022-10-12T23:49:58.961Z,12.10
2022-10-12T23:52:54.929Z,12.38
2022-10-12T23:55:30.906Z,11.93
2022-10-12T23:58:22.649Z,12.10
